Time;durP1;ratioP1;P1;durP2;ratioP2;P2;SDS_P1;SDS_P2;PMS_P1;PMS_P2;Temp;Humidity;BMP_temperature;BMP_pressure;BME280_temperature;BME280_humidity;BME280_pressure;Samples;Min_cycle;Max_cycle;Signal;HPM_P1;HPM_P2
2022/03/02 00:01:16;;;;;;;37.83;23.43;;;2.40;82.10;;;;;;6278421;22;20178;-91
2022/03/02 00:03:42;;;;;;;36.70;24.30;;;2.30;82.30;;;;;;6278613;22;20227;-91
2022/03/02 00:06:09;;;;;;;39.40;26.40;;;2.20;82.70;;;;;;6282454;22;20208;-92
2022/03/02 00:08:35;;;;;;;46.93;25.47;;;2.20;83.00;;;;;;6279075;22;20177;-93
2022/03/02 00:11:00;;;;;;;41.73;24.33;;;2.20;83.10;;;;;;6288054;22;20572;-92
2022/03/02 00:13:26;;;;;;;41.43;26.43;;;2.20;83.30;;;;;;6284207;22;20153;-91
2022/03/02 00:15:52;;;;;;;46.93;27.40;;;2.20;83.40;;;;;;6277980;22;20560;-92
2022/03/02 00:18:17;;;;;;;43.20;27.17;;;2.20;83.60;;;;;;6279196;22;20153;-91
2022/03/02 00:20:43;;;;;;;45.07;26.10;;;2.10;83.70;;;;;;6277780;22;20216;-92
2022/03/02 00:23:08;;;;;;;40.83;26.37;;;2.10;83.90;;;;;;6277747;22;20154;-90
2022/03/02 00:25:34;;;;;;;42.67;27.50;;;2.00;84.30;;;;;;6277482;22;20239;-93
2022/03/02 00:27:59;;;;;;;42.30;27.20;;;2.00;84.60;;;;;;6277068;22;20200;-91
2022/03/02 00:30:28;;;;;;;41.60;26.63;;;1.90;84.90;;;;;;6276309;22;20188;-92
2022/03/02 00:32:54;;;;;;;39.47;25.97;;;1.90;85.00;;;;;;6279718;22;20149;-91
2022/03/02 00:35:20;;;;;;;44.63;26.60;;;1.90;85.10;;;;;;6277121;22;20210;-92
2022/03/02 00:37:46;;;;;;;42.43;26.47;;;1.90;85.30;;;;;;6277217;22;20209;-92
2022/03/02 00:40:13;;;;;;;40.60;26.37;;;1.90;85.30;;;;;;6276870;22;20182;-91
2022/03/02 00:42:39;;;;;;;47.00;27.07;;;1.90;85.40;;;;;;6276836;22;20154;-91
2022/03/02 00:45:04;;;;;;;42.33;26.30;;;1.80;85.60;;;;;;6277224;22;20157;-91
2022/03/02 00:47:30;;;;;;;46.00;27.20;;;1.80;85.90;;;;;;6277300;22;20205;-92
2022/03/02 00:49:56;;;;;;;49.17;28.67;;;1.70;86.30;;;;;;6277439;22;20205;-92
2022/03/02 00:52:22;;;;;;;45.90;27.43;;;1.70;86.60;;;;;;6277625;22;20154;-91
2022/03/02 00:54:48;;;;;;;43.30;27.07;;;1.70;86.70;;;;;;6277349;22;20227;-92
2022/03/02 00:57:13;;;;;;;42.07;27.50;;;1.70;86.60;;;;;;6278151;22;20153;-93
2022/03/02 00:59:39;;;;;;;38.30;26.17;;;1.70;86.50;;;;;;6277997;22;20237;-92
2022/03/02 01:02:04;;;;;;;43.17;26.23;;;1.70;86.50;;;;;;6279401;22;20177;-92
2022/03/02 01:04:30;;;;;;;41.20;27.23;;;1.70;86.60;;;;;;6277232;22;20151;-93
2022/03/02 01:06:56;;;;;;;46.90;27.07;;;1.70;86.60;;;;;;6277225;22;20478;-92
2022/03/02 01:09:21;;;;;;;43.70;27.57;;;1.70;86.70;;;;;;6277195;22;20211;-92
2022/03/02 01:11:47;;;;;;;40.60;25.87;;;1.70;86.70;;;;;;6276686;22;20174;-92
2022/03/02 01:14:12;;;;;;;38.93;26.60;;;1.70;86.70;;;;;;6278136;22;20147;-92
2022/03/02 01:16:38;;;;;;;45.33;26.73;;;1.70;86.60;;;;;;6280137;22;20164;-92
2022/03/02 01:19:04;;;;;;;42.27;26.90;;;1.70;86.70;;;;;;6281477;22;20152;-93
2022/03/02 01:21:29;;;;;;;42.10;26.57;;;1.70;86.70;;;;;;6277130;22;20184;-91
2022/03/02 01:23:56;;;;;;;41.70;26.80;;;1.60;86.70;;;;;;6290504;22;20205;-93
2022/03/02 01:26:24;;;;;;;40.70;25.70;;;1.60;86.70;;;;;;6285198;22;20588;-91
2022/03/02 01:28:51;;;;;;;43.87;25.77;;;1.60;86.70;;;;;;6280007;22;20235;-91
2022/03/02 01:31:16;;;;;;;40.17;26.00;;;1.60;86.50;;;;;;6277985;22;20272;-91
2022/03/02 01:33:42;;;;;;;43.47;26.13;;;1.70;86.50;;;;;;6282628;22;20159;-92
2022/03/02 01:36:07;;;;;;;45.43;25.47;;;1.70;86.50;;;;;;6288434;22;20153;-93
2022/03/02 01:38:33;;;;;;;40.97;26.33;;;1.70;86.40;;;;;;6291592;22;20154;-93
2022/03/02 01:40:59;;;;;;;49.20;27.37;;;1.70;86.40;;;;;;6290309;22;20175;-93
2022/03/02 01:43:27;;;;;;;39.07;25.90;;;1.70;86.40;;;;;;6291860;22;20177;-93
2022/03/02 01:45:53;;;;;;;38.93;25.53;;;1.80;86.30;;;;;;6290850;22;20156;-93
2022/03/02 01:48:19;;;;;;;39.03;26.63;;;1.80;86.10;;;;;;6290100;22;20184;-93
2022/03/02 01:50:44;;;;;;;42.93;25.83;;;1.80;86.00;;;;;;6290901;22;20178;-93
2022/03/02 01:53:10;;;;;;;44.93;24.20;;;1.70;85.90;;;;;;6291394;22;20150;-94
2022/03/02 01:55:36;;;;;;;36.60;23.80;;;1.70;85.90;;;;;;6290165;22;20153;-93
2022/03/02 01:58:02;;;;;;;39.07;25.07;;;1.80;85.90;;;;;;6290821;22;20157;-94
2022/03/02 02:00:27;;;;;;;42.57;26.73;;;1.80;85.80;;;;;;6290216;22;20305;-93
2022/03/02 02:02:54;;;;;;;37.83;25.57;;;1.80;85.80;;;;;;6289557;22;20188;-94
2022/03/02 02:05:19;;;;;;;39.07;24.93;;;1.80;85.80;;;;;;6290369;22;20538;-93
2022/03/02 02:07:45;;;;;;;39.77;25.70;;;1.90;85.90;;;;;;6291104;22;20288;-94
2022/03/02 02:10:12;;;;;;;38.80;26.40;;;1.90;85.60;;;;;;6292327;22;20181;-93
2022/03/02 02:12:38;;;;;;;46.10;26.10;;;1.90;85.40;;;;;;6291326;22;20189;-92
2022/03/02 02:15:05;;;;;;;41.97;26.27;;;1.90;85.30;;;;;;6290140;22;20150;-94
2022/03/02 02:17:31;;;;;;;37.47;23.77;;;2.00;85.20;;;;;;6290229;22;20295;-93
2022/03/02 02:19:56;;;;;;;44.73;26.67;;;2.00;85.00;;;;;;6289653;22;20154;-92
2022/03/02 02:22:22;;;;;;;37.77;24.87;;;2.00;84.90;;;;;;6289253;22;20158;-93
2022/03/02 02:24:47;;;;;;;41.87;26.17;;;2.00;84.80;;;;;;6288817;22;20157;-93
2022/03/02 02:27:15;;;;;;;40.97;25.67;;;2.00;84.60;;;;;;6290130;22;20158;-92
2022/03/02 02:29:42;;;;;;;42.57;25.43;;;2.00;84.60;;;;;;6289024;22;20152;-93
2022/03/02 02:32:08;;;;;;;37.43;25.37;;;2.00;84.60;;;;;;6290090;22;20187;-92
2022/03/02 02:34:34;;;;;;;39.23;25.57;;;2.00;84.50;;;;;;6292257;22;20158;-93
2022/03/02 02:37:00;;;;;;;37.63;24.90;;;2.00;84.50;;;;;;6291510;22;20158;-92
2022/03/02 02:39:27;;;;;;;43.20;26.03;;;2.00;84.40;;;;;;6290573;22;20179;-93
2022/03/02 02:41:53;;;;;;;42.40;27.57;;;1.90;84.20;;;;;;6291943;22;20182;-93
2022/03/02 02:44:18;;;;;;;38.57;25.50;;;1.90;84.30;;;;;;6290729;22;20188;-93
2022/03/02 02:46:45;;;;;;;42.17;27.27;;;1.90;84.50;;;;;;6290472;22;20236;-93
2022/03/02 02:49:11;;;;;;;41.50;26.57;;;1.90;84.60;;;;;;6289215;22;20193;-93
2022/03/02 02:51:37;;;;;;;46.43;27.90;;;1.90;84.60;;;;;;6289509;22;20171;-93
2022/03/02 02:54:03;;;;;;;42.97;26.80;;;1.90;84.60;;;;;;6289888;22;20263;-93
2022/03/02 02:56:29;;;;;;;42.20;26.03;;;1.90;84.60;;;;;;6291939;22;20154;-93
2022/03/02 02:58:54;;;;;;;43.60;27.70;;;1.90;84.70;;;;;;6291789;22;20158;-93
2022/03/02 03:01:20;;;;;;;44.83;28.13;;;1.80;84.80;;;;;;6292049;22;20176;-93
2022/03/02 03:03:47;;;;;;;43.30;27.13;;;1.80;84.90;;;;;;6292207;22;20165;-93
2022/03/02 03:06:13;;;;;;;41.17;26.57;;;1.80;85.00;;;;;;6292303;22;20154;-94
2022/03/02 03:08:39;;;;;;;42.30;27.07;;;1.70;85.10;;;;;;6290006;22;20180;-93
2022/03/02 03:11:05;;;;;;;47.93;27.80;;;1.70;85.10;;;;;;6290730;22;20179;-93
2022/03/02 03:13:31;;;;;;;41.70;27.53;;;1.80;85.20;;;;;;6291150;22;20158;-92
2022/03/02 03:15:56;;;;;;;45.23;28.37;;;1.70;85.20;;;;;;6291627;22;20164;-93
2022/03/02 03:18:22;;;;;;;46.07;27.67;;;1.60;85.40;;;;;;6292430;22;20156;-92
2022/03/02 03:20:47;;;;;;;45.47;27.70;;;1.60;85.60;;;;;;6291293;22;20179;-93
2022/03/02 03:23:13;;;;;;;48.37;26.03;;;1.50;85.80;;;;;;6290688;22;20156;-93
2022/03/02 03:25:38;;;;;;;46.00;29.10;;;1.40;86.20;;;;;;6292219;22;20185;-93
2022/03/02 03:28:05;;;;;;;51.03;28.40;;;1.30;86.50;;;;;;6292156;22;20178;-93
2022/03/02 03:30:30;;;;;;;50.60;30.77;;;1.30;86.70;;;;;;6291981;22;20211;-94
2022/03/02 03:32:56;;;;;;;50.60;29.47;;;1.30;87.00;;;;;;6293514;22;20150;-92
2022/03/02 03:35:24;;;;;;;43.50;28.63;;;1.30;87.00;;;;;;6294177;22;20154;-93
2022/03/02 03:37:50;;;;;;;47.13;28.57;;;1.30;87.10;;;;;;6292992;22;20166;-93
2022/03/02 03:40:17;;;;;;;53.33;30.23;;;1.40;87.10;;;;;;6293815;22;20197;-94
2022/03/02 03:42:43;;;;;;;52.60;30.97;;;1.50;87.20;;;;;;6292967;22;20159;-92
2022/03/02 03:45:09;;;;;;;45.93;28.80;;;1.50;87.10;;;;;;6292718;22;20177;-93
2022/03/02 03:47:35;;;;;;;47.23;28.90;;;1.50;86.60;;;;;;6292078;22;20260;-93
2022/03/02 03:50:02;;;;;;;43.43;27.90;;;1.40;86.50;;;;;;6292284;22;20185;-94
2022/03/02 03:52:27;;;;;;;52.93;28.07;;;1.50;86.50;;;;;;6290994;22;20152;-93
2022/03/02 03:54:53;;;;;;;46.80;28.97;;;1.30;86.40;;;;;;6292651;22;20160;-93
2022/03/02 03:57:18;;;;;;;46.33;29.80;;;1.30;86.40;;;;;;6290000;22;20193;-93
2022/03/02 03:59:44;;;;;;;48.63;29.07;;;1.30;86.50;;;;;;6291093;22;20217;-94
2022/03/02 04:02:10;;;;;;;44.80;27.27;;;1.20;86.50;;;;;;6290520;22;20158;-93
2022/03/02 04:04:35;;;;;;;54.83;29.53;;;1.20;86.50;;;;;;6290815;22;20185;-93
2022/03/02 04:07:01;;;;;;;43.80;28.83;;;1.10;86.60;;;;;;6289424;22;20158;-94
2022/03/02 04:09:27;;;;;;;48.50;29.40;;;1.10;86.70;;;;;;6286631;22;20176;-93
2022/03/02 04:11:52;;;;;;;47.47;28.80;;;1.00;86.80;;;;;;6289025;22;20182;-93
2022/03/02 04:14:18;;;;;;;48.37;29.97;;;1.00;86.90;;;;;;6293832;22;20151;-92
2022/03/02 04:16:43;;;;;;;45.17;29.40;;;0.90;87.10;;;;;;6295139;22;20141;-93
2022/03/02 04:19:09;;;;;;;47.67;29.33;;;0.80;87.10;;;;;;6296875;22;20221;-93
2022/03/02 04:21:35;;;;;;;47.10;29.60;;;0.80;87.20;;;;;;6296773;22;20193;-93
2022/03/02 04:24:01;;;;;;;55.17;30.77;;;0.70;87.30;;;;;;6296728;22;20164;-94
2022/03/02 04:26:26;;;;;;;53.07;31.47;;;0.70;87.50;;;;;;6295024;22;20180;-93
2022/03/02 04:28:52;;;;;;;57.17;31.67;;;0.60;87.60;;;;;;6295930;22;20344;-93
2022/03/02 04:31:18;;;;;;;52.83;31.33;;;0.60;87.70;;;;;;6286562;22;20202;-91
2022/03/02 04:33:44;;;;;;;53.47;32.70;;;0.60;87.90;;;;;;6276497;22;20156;-93
2022/03/02 04:36:09;;;;;;;60.83;34.93;;;0.60;88.00;;;;;;6276597;22;20222;-90
2022/03/02 04:38:36;;;;;;;57.13;33.23;;;0.60;88.10;;;;;;6279195;22;20149;-90
2022/03/02 04:41:01;;;;;;;60.27;33.53;;;0.60;88.20;;;;;;6278206;22;20171;-92
2022/03/02 04:43:27;;;;;;;52.47;32.93;;;0.50;88.30;;;;;;6276672;22;20163;-93
2022/03/02 04:45:53;;;;;;;59.53;33.63;;;0.50;88.40;;;;;;6276829;22;20166;-91
2022/03/02 04:48:18;;;;;;;51.17;31.60;;;0.40;88.40;;;;;;6277890;22;20211;-91
2022/03/02 04:50:44;;;;;;;58.37;33.57;;;0.40;88.50;;;;;;6276794;22;20175;-91
2022/03/02 04:53:10;;;;;;;54.80;31.80;;;0.40;88.60;;;;;;6277109;22;20161;-91
2022/03/02 04:55:35;;;;;;;55.07;33.03;;;0.40;88.70;;;;;;6278600;22;20223;-91
2022/03/02 04:58:01;;;;;;;52.53;32.90;;;0.30;88.70;;;;;;6276921;22;20155;-91
2022/03/02 05:00:30;;;;;;;58.93;35.40;;;0.40;88.90;;;;;;6277205;22;20159;-91
2022/03/02 05:02:57;;;;;;;51.90;32.57;;;0.40;88.80;;;;;;6276966;22;20152;-91
2022/03/02 05:05:24;;;;;;;61.83;33.00;;;0.30;88.80;;;;;;6277535;22;20182;-91
2022/03/02 05:07:51;;;;;;;56.03;33.00;;;0.30;88.90;;;;;;6277851;22;20564;-91
2022/03/02 05:10:19;;;;;;;64.13;33.80;;;0.20;88.90;;;;;;6278949;22;20589;-93
2022/03/02 05:12:45;;;;;;;57.03;32.53;;;0.20;89.00;;;;;;6277277;22;20157;-94
2022/03/02 05:15:12;;;;;;;53.50;31.63;;;0.00;89.00;;;;;;6277465;22;20216;-93
2022/03/02 05:17:39;;;;;;;52.43;31.33;;;0.00;89.20;;;;;;6276965;22;20155;-93
2022/03/02 05:20:07;;;;;;;52.70;31.40;;;0.00;89.40;;;;;;6277713;22;20499;-93
2022/03/02 05:22:32;;;;;;;53.17;32.80;;;0.00;89.50;;;;;;6277466;22;20175;-91
2022/03/02 05:24:58;;;;;;;49.80;31.90;;;-0.10;89.50;;;;;;6277556;22;20168;-91
2022/03/02 05:27:24;;;;;;;57.40;32.67;;;0.00;89.50;;;;;;6278524;22;20159;-91
2022/03/02 05:29:50;;;;;;;52.47;30.93;;;0.00;89.50;;;;;;6279519;22;20139;-91
2022/03/02 05:32:16;;;;;;;60.10;34.40;;;0.00;89.60;;;;;;6277244;22;20191;-91
2022/03/02 05:34:41;;;;;;;55.40;32.37;;;0.00;89.50;;;;;;6277821;22;20152;-91
2022/03/02 05:37:07;;;;;;;47.87;30.53;;;0.10;89.40;;;;;;6277441;22;20159;-91
2022/03/02 05:39:33;;;;;;;54.63;29.70;;;0.10;89.40;;;;;;6277468;22;20241;-91
2022/03/02 05:41:58;;;;;;;49.93;30.07;;;0.10;89.30;;;;;;6277979;22;20184;-91
2022/03/02 05:44:24;;;;;;;48.10;32.33;;;0.10;89.30;;;;;;6277607;22;20236;-91
2022/03/02 05:46:50;;;;;;;53.33;31.90;;;0.20;89.20;;;;;;6277139;22;20161;-91
2022/03/02 05:49:16;;;;;;;52.53;32.13;;;0.20;88.80;;;;;;6277999;22;20179;-91
2022/03/02 05:51:42;;;;;;;49.07;32.20;;;0.10;88.60;;;;;;6276877;22;20258;-91
2022/03/02 05:54:08;;;;;;;59.33;33.23;;;0.20;88.60;;;;;;6277340;22;20167;-91
2022/03/02 05:56:34;;;;;;;52.60;33.63;;;0.20;88.50;;;;;;6277608;22;20230;-91
2022/03/02 05:59:00;;;;;;;59.73;32.27;;;0.00;88.40;;;;;;6276742;22;20150;-92
2022/03/02 06:01:25;;;;;;;53.77;33.23;;;0.10;88.50;;;;;;6276997;22;20308;-91
2022/03/02 06:03:51;;;;;;;48.73;32.63;;;0.00;88.50;;;;;;6278016;22;20207;-91
2022/03/02 06:06:17;;;;;;;54.97;32.10;;;0.10;88.60;;;;;;6276632;22;20162;-91
2022/03/02 06:08:43;;;;;;;56.43;33.07;;;0.10;88.50;;;;;;6276696;22;20547;-91
2022/03/02 06:11:09;;;;;;;52.80;33.33;;;0.10;88.50;;;;;;6276693;22;20198;-91
2022/03/02 06:13:35;;;;;;;52.97;33.17;;;0.10;88.50;;;;;;6276687;22;20498;-90
2022/03/02 06:16:02;;;;;;;57.30;33.97;;;0.00;88.50;;;;;;6276285;22;20159;-90
2022/03/02 06:18:29;;;;;;;57.10;34.57;;;0.00;88.60;;;;;;6275886;22;20163;-90
2022/03/02 06:21:00;;;;;;;61.10;35.10;;;0.00;88.60;;;;;;6277327;22;20230;-90
2022/03/02 06:23:30;;;;;;;58.30;34.13;;;0.00;88.70;;;;;;6275911;22;20140;-90
2022/03/02 06:25:56;;;;;;;55.23;33.23;;;0.00;88.80;;;;;;6275765;22;20155;-90
2022/03/02 06:28:23;;;;;;;62.13;34.53;;;0.00;88.80;;;;;;6275095;22;20179;-90
2022/03/02 06:30:49;;;;;;;65.53;34.93;;;0.00;88.90;;;;;;6275431;22;20184;-91
2022/03/02 06:33:18;;;;;;;63.73;37.27;;;0.00;89.00;;;;;;6275805;22;20155;-91
2022/03/02 06:35:44;;;;;;;60.90;38.20;;;0.00;89.10;;;;;;6276248;22;20180;-91
2022/03/02 06:38:10;;;;;;;59.23;35.53;;;0.00;89.20;;;;;;6276631;22;20205;-90
2022/03/02 06:40:36;;;;;;;60.67;35.83;;;0.10;89.30;;;;;;6275368;22;20179;-91
2022/03/02 06:43:08;;;;;;;61.40;36.33;;;0.10;89.40;;;;;;6275419;22;20155;-91
2022/03/02 06:45:53;;;;;;;63.83;36.93;;;0.10;89.40;;;;;;6276826;22;20292;-91
2022/03/02 06:48:22;;;;;;;60.50;37.80;;;0.00;89.50;;;;;;6276249;22;20261;-91
2022/03/02 06:50:52;;;;;;;61.80;37.00;;;0.00;89.60;;;;;;6275535;22;20662;-90
2022/03/02 06:53:19;;;;;;;71.43;38.17;;;0.00;89.70;;;;;;6275695;22;20592;-91
2022/03/02 06:55:45;;;;;;;69.70;39.00;;;0.10;89.90;;;;;;6275963;22;20151;-91
2022/03/02 06:58:12;;;;;;;67.53;38.70;;;0.20;90.00;;;;;;6275384;22;20162;-91
2022/03/02 07:00:39;;;;;;;64.93;37.67;;;0.20;90.00;;;;;;6275702;22;20171;-90
2022/03/02 07:03:09;;;;;;;69.67;39.83;;;0.20;90.10;;;;;;6275712;22;20165;-91
2022/03/02 07:05:36;;;;;;;67.30;39.43;;;0.30;90.10;;;;;;6275894;22;20154;-91
2022/03/02 07:08:04;;;;;;;68.23;41.33;;;0.30;90.20;;;;;;6275591;22;20213;-91
2022/03/02 07:10:34;;;;;;;70.50;39.63;;;0.30;90.20;;;;;;6275589;22;20151;-91
2022/03/02 07:13:02;;;;;;;69.33;38.80;;;0.30;90.30;;;;;;6275659;22;20582;-91
2022/03/02 07:15:29;;;;;;;63.33;38.83;;;0.30;90.40;;;;;;6275711;22;20167;-91
2022/03/02 07:17:57;;;;;;;70.77;39.20;;;0.30;90.40;;;;;;6275849;22;20553;-91
2022/03/02 07:20:22;;;;;;;66.97;41.27;;;0.30;90.40;;;;;;6276773;22;20243;-91
2022/03/02 07:22:53;;;;;;;68.17;40.13;;;0.30;90.40;;;;;;6280239;22;20162;-91
2022/03/02 07:25:29;;;;;;;63.30;37.77;;;0.40;90.50;;;;;;6279529;22;20156;-90
2022/03/02 07:27:56;;;;;;;67.70;38.93;;;0.30;90.60;;;;;;6280330;22;20607;-92
2022/03/02 07:30:22;;;;;;;77.17;41.20;;;0.40;90.60;;;;;;6278067;22;20163;-92
2022/03/02 07:32:48;;;;;;;71.67;41.53;;;0.40;90.70;;;;;;6276291;22;20530;-91
2022/03/02 07:35:16;;;;;;;73.53;41.30;;;0.50;90.70;;;;;;6277218;22;20472;-91
2022/03/02 07:37:44;;;;;;;67.80;40.90;;;0.50;90.80;;;;;;6278565;22;20197;-91
2022/03/02 07:40:10;;;;;;;70.23;40.10;;;0.60;90.80;;;;;;6278152;22;20152;-90
2022/03/02 07:42:37;;;;;;;64.40;38.97;;;0.60;90.90;;;;;;6277964;22;20182;-91
2022/03/02 07:45:05;;;;;;;65.10;39.30;;;0.70;90.80;;;;;;6277576;22;20161;-91
2022/03/02 07:47:30;;;;;;;71.23;42.60;;;0.80;90.80;;;;;;6278035;22;20154;-91
2022/03/02 07:49:56;;;;;;;64.53;37.70;;;1.00;90.70;;;;;;6277364;22;20478;-90
2022/03/02 07:52:25;;;;;;;66.97;39.50;;;1.00;90.50;;;;;;6277670;22;20254;-91
2022/03/02 07:54:58;;;;;;;67.90;40.90;;;1.10;90.30;;;;;;6278425;22;20164;-90
2022/03/02 07:57:24;;;;;;;69.63;39.07;;;1.20;90.20;;;;;;6278305;22;20143;-90
2022/03/02 07:59:52;;;;;;;63.53;38.73;;;1.20;90.00;;;;;;6278203;22;20160;-90
2022/03/02 08:02:21;;;;;;;69.30;40.67;;;1.30;89.90;;;;;;6277395;22;20227;-91
2022/03/02 08:04:51;;;;;;;68.20;41.77;;;1.40;89.80;;;;;;6277070;22;20158;-90
2022/03/02 08:07:17;;;;;;;76.73;40.97;;;1.50;89.60;;;;;;6278161;22;20563;-90
2022/03/02 08:09:43;;;;;;;66.73;38.53;;;1.50;89.30;;;;;;6277076;22;20157;-90
2022/03/02 08:12:10;;;;;;;70.13;39.37;;;1.60;89.20;;;;;;6276861;22;20201;-90
2022/03/02 08:14:36;;;;;;;67.40;39.17;;;1.70;89.00;;;;;;6277068;22;20227;-90
2022/03/02 08:17:03;;;;;;;59.00;34.80;;;1.80;88.70;;;;;;6276743;22;20157;-90
2022/03/02 08:19:30;;;;;;;58.10;37.43;;;1.90;88.40;;;;;;6277228;22;20152;-91
2022/03/02 08:22:01;;;;;;;61.57;35.93;;;2.00;88.10;;;;;;6277401;22;20258;-90
2022/03/02 08:24:27;;;;;;;59.20;37.80;;;2.10;88.10;;;;;;6277098;22;20577;-91
2022/03/02 08:26:58;;;;;;;60.33;34.83;;;2.20;87.60;;;;;;6276652;22;20207;-90
2022/03/02 08:29:26;;;;;;;62.83;36.77;;;2.30;87.60;;;;;;6277892;22;20219;-90
2022/03/02 08:31:54;;;;;;;59.47;35.57;;;2.30;87.10;;;;;;6280446;22;20186;-90
2022/03/02 08:34:19;;;;;;;62.97;38.47;;;2.40;86.80;;;;;;6282439;22;20166;-90
2022/03/02 08:36:46;;;;;;;60.93;38.13;;;2.50;86.80;;;;;;6281410;22;20186;-90
2022/03/02 08:39:14;;;;;;;56.57;36.40;;;2.60;86.50;;;;;;6277899;22;20612;-90
2022/03/02 08:41:40;;;;;;;62.70;37.50;;;2.70;86.40;;;;;;6277361;22;20180;-90
2022/03/02 08:44:08;;;;;;;54.07;34.37;;;2.80;85.80;;;;;;6277595;22;20184;-90
2022/03/02 08:46:34;;;;;;;56.77;33.67;;;2.80;85.50;;;;;;6280344;22;20183;-90
2022/03/02 08:49:00;;;;;;;58.27;34.37;;;2.90;84.80;;;;;;6289342;22;20213;-90
2022/03/02 08:51:27;;;;;;;52.67;33.10;;;2.90;84.50;;;;;;6281700;22;20162;-91
2022/03/02 08:53:58;;;;;;;48.97;32.90;;;3.00;83.90;;;;;;6290643;22;20161;-91
2022/03/02 08:56:25;;;;;;;60.60;31.40;;;3.10;83.70;;;;;;6284410;22;20157;-90
2022/03/02 08:58:52;;;;;;;53.57;33.53;;;3.20;83.60;;;;;;6276610;22;20245;-90
2022/03/02 09:01:19;;;;;;;51.93;31.67;;;3.30;83.60;;;;;;6278353;22;20180;-90
2022/03/02 09:03:48;;;;;;;61.23;34.97;;;3.30;83.30;;;;;;6276749;22;20223;-90
2022/03/02 09:06:15;;;;;;;50.13;31.33;;;3.30;82.70;;;;;;6278362;22;20228;-91
2022/03/02 09:08:41;;;;;;;50.90;30.70;;;3.40;82.20;;;;;;6277474;22;20183;-90
2022/03/02 09:11:08;;;;;;;57.23;32.13;;;3.50;82.00;;;;;;6276795;22;20200;-90
2022/03/02 09:13:36;;;;;;;50.97;31.37;;;3.60;82.40;;;;;;6277726;22;20155;-90
2022/03/02 09:16:03;;;;;;;44.03;29.60;;;3.70;81.90;;;;;;6278101;22;20211;-91
2022/03/02 09:18:29;;;;;;;44.73;28.60;;;3.80;81.10;;;;;;6286079;22;20151;-90
2022/03/02 09:20:58;;;;;;;46.03;29.30;;;3.80;80.40;;;;;;6288991;22;20494;-90
2022/03/02 09:23:32;;;;;;;48.73;31.40;;;3.80;79.80;;;;;;6285754;22;20162;-91
2022/03/02 09:26:06;;;;;;;50.10;30.13;;;3.90;79.90;;;;;;6287197;22;20150;-90
2022/03/02 09:28:37;;;;;;;48.00;29.93;;;4.00;79.20;;;;;;6276578;22;20174;-90
2022/03/02 09:31:06;;;;;;;47.30;30.03;;;4.00;79.30;;;;;;6278569;22;20257;-90
2022/03/02 09:33:34;;;;;;;48.30;28.40;;;4.20;79.60;;;;;;6276922;22;20178;-89
2022/03/02 09:36:03;;;;;;;47.17;28.53;;;4.30;79.60;;;;;;6276873;22;20155;-90
2022/03/02 09:38:32;;;;;;;48.27;28.50;;;4.50;78.60;;;;;;6279204;22;20233;-90
2022/03/02 09:41:03;;;;;;;47.13;29.77;;;4.50;77.70;;;;;;6276935;22;20178;-90
2022/03/02 09:43:31;;;;;;;44.27;28.77;;;4.50;77.80;;;;;;6275929;22;20658;-90
2022/03/02 09:46:01;;;;;;;48.83;28.90;;;4.70;77.10;;;;;;6277233;22;20147;-90
2022/03/02 09:48:32;;;;;;;47.83;29.80;;;4.80;76.50;;;;;;6276872;22;20178;-90
2022/03/02 09:51:00;;;;;;;45.03;29.07;;;4.90;76.60;;;;;;6275415;22;20175;-90
2022/03/02 09:53:28;;;;;;;36.20;24.30;;;5.00;75.40;;;;;;6275591;22;20514;-91
2022/03/02 09:56:01;;;;;;;40.73;26.73;;;5.00;74.30;;;;;;6275777;22;20151;-91
2022/03/02 09:58:28;;;;;;;40.03;25.23;;;5.10;73.80;;;;;;6276774;22;20184;-92
2022/03/02 10:00:55;;;;;;;41.07;26.93;;;5.20;72.70;;;;;;6276014;22;20188;-91
2022/03/02 10:03:27;;;;;;;41.93;26.37;;;5.40;73.80;;;;;;6275665;22;20180;-91
2022/03/02 10:05:53;;;;;;;49.77;26.43;;;5.30;72.10;;;;;;6275790;22;20152;-91
2022/03/02 10:08:23;;;;;;;39.80;24.47;;;5.40;71.50;;;;;;6276538;22;20657;-91
2022/03/02 10:10:49;;;;;;;37.70;24.53;;;5.60;72.10;;;;;;6276250;22;20686;-91
2022/03/02 10:13:16;;;;;;;52.70;24.93;;;5.70;72.10;;;;;;6278929;22;20152;-93
2022/03/02 10:15:43;;;;;;;44.07;25.43;;;5.80;70.30;;;;;;6279588;22;20156;-92
2022/03/02 10:18:12;;;;;;;39.63;23.87;;;5.90;70.30;;;;;;6276882;22;20161;-92
2022/03/02 10:20:43;;;;;;;40.03;24.33;;;6.10;70.60;;;;;;6276604;22;20178;-90
2022/03/02 10:23:36;;;;;;;38.07;25.07;;;6.20;68.80;;;;;;6276669;22;20188;-90
2022/03/02 10:26:16;;;;;;;39.60;21.07;;;6.20;67.80;;;;;;6277877;22;20153;-90
2022/03/02 10:29:02;;;;;;;34.17;21.83;;;6.30;66.30;;;;;;6276221;22;20297;-91
2022/03/02 10:32:08;;;;;;;38.57;23.70;;;6.30;66.50;;;;;;6294360;22;20205;-93
2022/03/02 10:34:41;;;;;;;32.70;20.57;;;6.50;67.40;;;;;;6298209;22;20162;-90
2022/03/02 10:37:08;;;;;;;33.50;21.10;;;6.60;64.50;;;;;;6304731;22;20130;-91
2022/03/02 10:40:16;;;;;;;31.93;20.97;;;6.60;64.50;;;;;;6303553;22;20187;-93
2022/03/02 10:42:54;;;;;;;31.57;20.73;;;6.70;63.80;;;;;;6302618;22;20169;-91
2022/03/02 10:45:35;;;;;;;32.67;20.50;;;6.70;63.00;;;;;;6304917;22;20156;-91
2022/03/02 10:48:38;;;;;;;30.63;21.40;;;7.00;63.80;;;;;;6295385;22;20527;-91
2022/03/02 10:51:07;;;;;;;35.40;22.77;;;7.00;64.30;;;;;;6293119;22;20229;-91
2022/03/02 10:53:37;;;;;;;33.23;22.57;;;7.20;64.50;;;;;;6295813;22;20165;-92
2022/03/02 10:56:08;;;;;;;34.07;23.27;;;7.20;64.20;;;;;;6287107;22;20481;-91
2022/03/02 10:58:52;;;;;;;30.50;21.20;;;7.20;64.60;;;;;;6298623;22;20134;-93
2022/03/02 11:01:19;;;;;;;31.33;20.73;;;7.30;63.20;;;;;;6295305;22;20610;-93
2022/03/02 11:06:21;;;;;;;36.07;23.37;;;7.20;62.50;;;;;;6334897;22;20207;-92
2022/03/02 11:11:36;;;;;;;41.53;23.20;;;7.30;62.50;;;;;;6335639;22;20291;-92
2022/03/02 11:16:45;;;;;;;36.97;21.07;;;7.40;63.20;;;;;;6363516;22;20172;-92
2022/03/02 11:19:26;;;;;;;38.57;23.40;;;7.40;60.40;;;;;;6342989;22;20129;-93
2022/03/02 11:22:03;;;;;;;32.47;21.07;;;7.50;60.90;;;;;;6336959;22;20154;-93
2022/03/02 11:24:35;;;;;;;29.83;20.90;;;7.70;61.20;;;;;;6334261;22;20145;-93
2022/03/02 11:27:04;;;;;;;32.97;22.93;;;7.70;60.10;;;;;;6329415;22;20142;-93
2022/03/02 11:29:31;;;;;;;33.60;22.73;;;7.80;60.50;;;;;;6326518;22;20174;-93
2022/03/02 11:31:57;;;;;;;36.40;23.77;;;7.80;59.10;;;;;;6294020;22;20199;-93
2022/03/02 11:34:26;;;;;;;34.33;22.33;;;8.00;59.80;;;;;;6300491;22;20139;-93
2022/03/02 11:37:04;;;;;;;33.67;23.00;;;8.00;60.70;;;;;;6291164;22;20208;-91
2022/03/02 11:39:30;;;;;;;33.13;22.90;;;8.10;61.20;;;;;;6277054;22;20151;-91
2022/03/02 11:42:03;;;;;;;32.73;22.53;;;8.00;58.50;;;;;;6278521;22;20603;-91
2022/03/02 11:44:35;;;;;;;32.13;22.13;;;8.10;60.80;;;;;;6278820;22;20184;-91
2022/03/02 11:47:10;;;;;;;33.17;22.07;;;8.00;59.50;;;;;;6277198;22;20669;-91
2022/03/02 11:49:40;;;;;;;33.17;22.33;;;7.90;58.70;;;;;;6276895;22;20195;-91
2022/03/02 11:52:09;;;;;;;36.57;22.23;;;8.00;58.50;;;;;;6276652;22;20227;-91
2022/03/02 11:54:52;;;;;;;33.93;23.03;;;8.00;58.90;;;;;;6276816;22;20497;-91
2022/03/02 11:57:19;;;;;;;34.53;22.27;;;8.10;58.50;;;;;;6276650;22;20161;-92
2022/03/02 11:59:46;;;;;;;36.40;22.77;;;8.10;58.30;;;;;;6278492;22;20158;-90
2022/03/02 12:02:14;;;;;;;32.83;21.43;;;8.00;57.80;;;;;;6276832;22;20202;-91
2022/03/02 12:04:41;;;;;;;30.90;20.60;;;8.20;56.90;;;;;;6276750;22;20151;-91
2022/03/02 12:07:08;;;;;;;32.27;20.97;;;8.30;57.20;;;;;;6276536;22;20506;-92
2022/03/02 12:09:38;;;;;;;31.87;20.67;;;8.30;57.50;;;;;;6276428;22;20190;-91
2022/03/02 12:12:16;;;;;;;33.90;22.27;;;8.30;57.70;;;;;;6276655;22;20174;-89
2022/03/02 12:14:42;;;;;;;31.33;21.20;;;8.30;57.20;;;;;;6279071;22;20135;-92
2022/03/02 12:17:26;;;;;;;36.30;21.67;;;8.30;56.70;;;;;;6277804;22;20490;-92
2022/03/02 12:19:55;;;;;;;30.23;20.67;;;8.30;56.20;;;;;;6277645;22;20142;-92
2022/03/02 12:22:21;;;;;;;31.27;21.10;;;8.30;56.50;;;;;;6278007;22;20202;-92
2022/03/02 12:24:49;;;;;;;42.93;23.40;;;8.50;56.60;;;;;;6277217;22;20179;-91
2022/03/02 12:27:16;;;;;;;33.00;21.77;;;8.70;57.90;;;;;;6276756;22;20151;-92
2022/03/02 12:29:43;;;;;;;33.80;23.17;;;8.80;56.90;;;;;;6277323;22;20179;-91
2022/03/02 12:32:16;;;;;;;32.23;21.63;;;8.80;56.50;;;;;;6276925;22;20201;-92
2022/03/02 12:34:50;;;;;;;33.57;21.97;;;8.80;54.60;;;;;;6277456;22;20507;-91
2022/03/02 12:37:17;;;;;;;34.90;22.63;;;8.80;55.20;;;;;;6277364;22;20170;-91
2022/03/02 12:39:43;;;;;;;35.00;21.57;;;8.70;56.30;;;;;;6277307;22;20155;-91
2022/03/02 12:42:11;;;;;;;28.53;21.23;;;8.90;55.50;;;;;;6278474;22;20258;-91
2022/03/02 12:44:38;;;;;;;32.70;21.77;;;8.80;55.30;;;;;;6276523;22;20192;-91
2022/03/02 12:47:07;;;;;;;35.37;22.37;;;8.90;56.10;;;;;;6276387;22;20162;-92